sensor_id;sensor_type;location;lat;lon;timestamp;temperature;humidity
19192;DHT22;9728;48.194;16.346;2024-02-23T00:01:29;18.10;67.50
19192;DHT22;9728;48.194;16.346;2024-02-23T00:06:33;18.00;67.40
19192;DHT22;9728;48.194;16.346;2024-02-23T00:11:39;18.10;67.50
19192;DHT22;9728;48.194;16.346;2024-02-23T00:16:48;18.10;67.40
19192;DHT22;9728;48.194;16.346;2024-02-23T00:21:51;18.10;67.50
19192;DHT22;9728;48.194;16.346;2024-02-23T00:26:55;18.10;67.50
19192;DHT22;9728;48.194;16.346;2024-02-23T00:31:59;18.10;67.50
19192;DHT22;9728;48.194;16.346;2024-02-23T00:37:03;18.10;67.60
19192;DHT22;9728;48.194;16.346;2024-02-23T00:42:07;18.10;67.60
19192;DHT22;9728;48.194;16.346;2024-02-23T00:47:12;18.10;67.70
19192;DHT22;9728;48.194;16.346;2024-02-23T00:52:16;18.10;67.80
19192;DHT22;9728;48.194;16.346;2024-02-23T00:57:19;18.00;67.70
19192;DHT22;9728;48.194;16.346;2024-02-23T01:02:30;18.00;67.70
19192;DHT22;9728;48.194;16.346;2024-02-23T01:07:33;18.00;67.80
19192;DHT22;9728;48.194;16.346;2024-02-23T01:12:37;18.00;67.80
19192;DHT22;9728;48.194;16.346;2024-02-23T01:17:42;18.00;67.80
19192;DHT22;9728;48.194;16.346;2024-02-23T01:22:45;18.00;67.80
19192;DHT22;9728;48.194;16.346;2024-02-23T01:27:49;18.00;67.80
19192;DHT22;9728;48.194;16.346;2024-02-23T01:32:53;18.00;67.90
19192;DHT22;9728;48.194;16.346;2024-02-23T01:37:57;18.00;68.00
19192;DHT22;9728;48.194;16.346;2024-02-23T01:43:02;18.00;68.00
19192;DHT22;9728;48.194;16.346;2024-02-23T01:48:07;18.00;68.10
19192;DHT22;9728;48.194;16.346;2024-02-23T01:53:12;18.00;68.20
19192;DHT22;9728;48.194;16.346;2024-02-23T01:58:16;18.00;68.20
19192;DHT22;9728;48.194;16.346;2024-02-23T02:03:21;17.90;68.00
19192;DHT22;9728;48.194;16.346;2024-02-23T02:08:25;17.90;68.20
19192;DHT22;9728;48.194;16.346;2024-02-23T02:13:29;17.90;68.10
19192;DHT22;9728;48.194;16.346;2024-02-23T02:18:34;17.90;68.20
19192;DHT22;9728;48.194;16.346;2024-02-23T02:23:38;17.90;68.20
19192;DHT22;9728;48.194;16.346;2024-02-23T02:28:41;17.90;68.20
19192;DHT22;9728;48.194;16.346;2024-02-23T02:33:50;17.90;68.20
19192;DHT22;9728;48.194;16.346;2024-02-23T02:38:53;17.90;68.40
19192;DHT22;9728;48.194;16.346;2024-02-23T02:43:57;17.90;68.20
19192;DHT22;9728;48.194;16.346;2024-02-23T02:49:02;17.90;68.20
19192;DHT22;9728;48.194;16.346;2024-02-23T02:54:05;17.90;68.20
19192;DHT22;9728;48.194;16.346;2024-02-23T02:59:09;17.90;68.30
19192;DHT22;9728;48.194;16.346;2024-02-23T03:04:14;17.90;68.40
19192;DHT22;9728;48.194;16.346;2024-02-23T03:09:18;17.80;68.50
19192;DHT22;9728;48.194;16.346;2024-02-23T03:14:21;17.80;69.50
19192;DHT22;9728;48.194;16.346;2024-02-23T03:19:26;17.80;68.70
19192;DHT22;9728;48.194;16.346;2024-02-23T03:24:30;17.80;68.60
19192;DHT22;9728;48.194;16.346;2024-02-23T03:29:33;17.80;68.60
19192;DHT22;9728;48.194;16.346;2024-02-23T03:34:38;17.80;68.60
19192;DHT22;9728;48.194;16.346;2024-02-23T03:39:41;17.70;68.70
19192;DHT22;9728;48.194;16.346;2024-02-23T03:44:45;17.70;68.70
19192;DHT22;9728;48.194;16.346;2024-02-23T03:49:49;17.70;68.80
19192;DHT22;9728;48.194;16.346;2024-02-23T03:54:53;17.70;69.10
19192;DHT22;9728;48.194;16.346;2024-02-23T03:59:57;17.70;69.10
19192;DHT22;9728;48.194;16.346;2024-02-23T04:05:02;17.70;69.10
19192;DHT22;9728;48.194;16.346;2024-02-23T04:10:06;17.60;69.20
19192;DHT22;9728;48.194;16.346;2024-02-23T04:15:10;17.70;69.30
19192;DHT22;9728;48.194;16.346;2024-02-23T04:20:15;17.60;69.10
19192;DHT22;9728;48.194;16.346;2024-02-23T04:25:18;17.50;69.30
19192;DHT22;9728;48.194;16.346;2024-02-23T04:30:22;17.30;69.40
19192;DHT22;9728;48.194;16.346;2024-02-23T04:35:27;17.30;69.60
19192;DHT22;9728;48.194;16.346;2024-02-23T04:40:30;17.20;69.80
19192;DHT22;9728;48.194;16.346;2024-02-23T04:45:34;17.20;69.90
19192;DHT22;9728;48.194;16.346;2024-02-23T04:50:39;17.10;69.90
19192;DHT22;9728;48.194;16.346;2024-02-23T04:55:42;16.90;70.10
19192;DHT22;9728;48.194;16.346;2024-02-23T05:00:45;16.80;70.20
19192;DHT22;9728;48.194;16.346;2024-02-23T05:05:50;16.60;70.50
19192;DHT22;9728;48.194;16.346;2024-02-23T05:10:56;16.60;71.00
19192;DHT22;9728;48.194;16.346;2024-02-23T05:16:00;16.50;71.10
19192;DHT22;9728;48.194;16.346;2024-02-23T05:21:05;16.40;71.20
19192;DHT22;9728;48.194;16.346;2024-02-23T05:26:08;16.40;71.50
19192;DHT22;9728;48.194;16.346;2024-02-23T05:31:12;16.40;71.40
19192;DHT22;9728;48.194;16.346;2024-02-23T05:36:17;16.40;71.40
19192;DHT22;9728;48.194;16.346;2024-02-23T05:41:21;16.40;71.60
19192;DHT22;9728;48.194;16.346;2024-02-23T05:46:25;16.40;71.50
19192;DHT22;9728;48.194;16.346;2024-02-23T05:51:30;16.50;71.50
19192;DHT22;9728;48.194;16.346;2024-02-23T05:56:33;16.40;71.80
19192;DHT22;9728;48.194;16.346;2024-02-23T06:01:37;16.40;71.70
19192;DHT22;9728;48.194;16.346;2024-02-23T06:06:42;16.40;71.60
19192;DHT22;9728;48.194;16.346;2024-02-23T06:11:46;16.40;71.70
19192;DHT22;9728;48.194;16.346;2024-02-23T06:16:50;16.40;71.40
19192;DHT22;9728;48.194;16.346;2024-02-23T06:21:54;16.40;72.60
19192;DHT22;9728;48.194;16.346;2024-02-23T06:26:58;16.40;72.30
19192;DHT22;9728;48.194;16.346;2024-02-23T06:32:01;16.50;71.90
19192;DHT22;9728;48.194;16.346;2024-02-23T06:37:06;16.50;71.70
19192;DHT22;9728;48.194;16.346;2024-02-23T06:42:10;16.60;71.70
19192;DHT22;9728;48.194;16.346;2024-02-23T06:47:13;16.60;71.40
19192;DHT22;9728;48.194;16.346;2024-02-23T06:52:18;16.70;72.80
19192;DHT22;9728;48.194;16.346;2024-02-23T06:57:21;16.70;72.20
19192;DHT22;9728;48.194;16.346;2024-02-23T07:02:27;16.80;71.80
19192;DHT22;9728;48.194;16.346;2024-02-23T07:07:35;16.90;71.50
19192;DHT22;9728;48.194;16.346;2024-02-23T07:12:38;17.00;71.40
19192;DHT22;9728;48.194;16.346;2024-02-23T07:17:42;17.00;71.20
19192;DHT22;9728;48.194;16.346;2024-02-23T07:22:46;17.10;71.10
19192;DHT22;9728;48.194;16.346;2024-02-23T07:27:51;17.10;71.00
19192;DHT22;9728;48.194;16.346;2024-02-23T07:32:55;17.10;70.80
19192;DHT22;9728;48.194;16.346;2024-02-23T07:38:02;17.20;70.70
19192;DHT22;9728;48.194;16.346;2024-02-23T07:43:07;17.20;70.50
19192;DHT22;9728;48.194;16.346;2024-02-23T07:48:13;17.30;70.40
19192;DHT22;9728;48.194;16.346;2024-02-23T07:53:18;17.30;70.40
19192;DHT22;9728;48.194;16.346;2024-02-23T07:58:21;17.30;70.30
19192;DHT22;9728;48.194;16.346;2024-02-23T08:03:25;17.40;70.30
19192;DHT22;9728;48.194;16.346;2024-02-23T08:08:30;17.40;70.20
19192;DHT22;9728;48.194;16.346;2024-02-23T08:13:37;17.40;73.90
19192;DHT22;9728;48.194;16.346;2024-02-23T08:18:40;17.70;77.10
19192;DHT22;9728;48.194;16.346;2024-02-23T08:23:45;18.20;78.50
19192;DHT22;9728;48.194;16.346;2024-02-23T08:28:48;19.00;78.60
19192;DHT22;9728;48.194;16.346;2024-02-23T08:33:52;19.80;77.60
19192;DHT22;9728;48.194;16.346;2024-02-23T08:38:57;20.60;76.10
19192;DHT22;9728;48.194;16.346;2024-02-23T08:44:00;21.20;72.60
19192;DHT22;9728;48.194;16.346;2024-02-23T08:49:04;21.70;70.20
19192;DHT22;9728;48.194;16.346;2024-02-23T08:54:09;21.90;68.10
19192;DHT22;9728;48.194;16.346;2024-02-23T08:59:12;21.90;66.40
19192;DHT22;9728;48.194;16.346;2024-02-23T09:04:16;21.80;65.80
19192;DHT22;9728;48.194;16.346;2024-02-23T09:09:21;21.60;65.30
19192;DHT22;9728;48.194;16.346;2024-02-23T09:14:24;21.40;64.80
19192;DHT22;9728;48.194;16.346;2024-02-23T09:19:28;21.20;65.00
19192;DHT22;9728;48.194;16.346;2024-02-23T09:24:33;21.00;65.00
19192;DHT22;9728;48.194;16.346;2024-02-23T09:29:37;20.70;64.80
19192;DHT22;9728;48.194;16.346;2024-02-23T09:34:41;20.50;65.00
19192;DHT22;9728;48.194;16.346;2024-02-23T09:39:46;20.30;65.00
19192;DHT22;9728;48.194;16.346;2024-02-23T09:44:51;20.20;65.20
19192;DHT22;9728;48.194;16.346;2024-02-23T09:50:04;19.90;65.30
19192;DHT22;9728;48.194;16.346;2024-02-23T09:55:09;19.80;65.70
19192;DHT22;9728;48.194;16.346;2024-02-23T10:00:18;19.70;65.90
19192;DHT22;9728;48.194;16.346;2024-02-23T10:05:23;19.50;66.00
19192;DHT22;9728;48.194;16.346;2024-02-23T10:10:37;19.40;66.20
19192;DHT22;9728;48.194;16.346;2024-02-23T10:15:41;19.30;66.30
19192;DHT22;9728;48.194;16.346;2024-02-23T10:21:01;19.30;66.50
19192;DHT22;9728;48.194;16.346;2024-02-23T10:26:07;19.10;66.60
19192;DHT22;9728;48.194;16.346;2024-02-23T10:31:10;19.10;66.90
19192;DHT22;9728;48.194;16.346;2024-02-23T10:36:15;19.00;67.00
19192;DHT22;9728;48.194;16.346;2024-02-23T10:41:22;19.00;66.80
19192;DHT22;9728;48.194;16.346;2024-02-23T10:46:25;18.90;66.90
19192;DHT22;9728;48.194;16.346;2024-02-23T10:51:30;18.90;66.90
19192;DHT22;9728;48.194;16.346;2024-02-23T10:56:35;18.80;66.90
19192;DHT22;9728;48.194;16.346;2024-02-23T11:01:39;18.80;66.90
19192;DHT22;9728;48.194;16.346;2024-02-23T11:06:49;18.80;66.90
19192;DHT22;9728;48.194;16.346;2024-02-23T11:11:55;18.80;66.70
19192;DHT22;9728;48.194;16.346;2024-02-23T11:17:00;18.70;66.90
19192;DHT22;9728;48.194;16.346;2024-02-23T11:22:04;18.70;67.00
19192;DHT22;9728;48.194;16.346;2024-02-23T11:27:18;18.70;66.90
19192;DHT22;9728;48.194;16.346;2024-02-23T11:32:22;18.70;66.80
19192;DHT22;9728;48.194;16.346;2024-02-23T11:37:45;18.70;66.90
19192;DHT22;9728;48.194;16.346;2024-02-23T11:42:51;18.60;66.50
19192;DHT22;9728;48.194;16.346;2024-02-23T11:47:54;18.60;66.70
19192;DHT22;9728;48.194;16.346;2024-02-23T11:52:58;18.60;66.70
19192;DHT22;9728;48.194;16.346;2024-02-23T11:58:05;18.60;66.70
19192;DHT22;9728;48.194;16.346;2024-02-23T12:03:19;18.50;66.70
19192;DHT22;9728;48.194;16.346;2024-02-23T12:08:22;18.50;70.60
19192;DHT22;9728;48.194;16.346;2024-02-23T12:13:27;18.80;74.30
19192;DHT22;9728;48.194;16.346;2024-02-23T12:18:33;19.20;74.30
19192;DHT22;9728;48.194;16.346;2024-02-23T12:23:40;19.80;74.00
19192;DHT22;9728;48.194;16.346;2024-02-23T12:28:45;20.40;73.00
19192;DHT22;9728;48.194;16.346;2024-02-23T12:33:49;21.00;72.10
19192;DHT22;9728;48.194;16.346;2024-02-23T12:38:53;21.50;71.20
19192;DHT22;9728;48.194;16.346;2024-02-23T12:43:58;21.90;70.20
19192;DHT22;9728;48.194;16.346;2024-02-23T12:49:01;22.30;69.10
19192;DHT22;9728;48.194;16.346;2024-02-23T12:54:05;22.60;67.10
19192;DHT22;9728;48.194;16.346;2024-02-23T12:59:10;22.70;65.20
19192;DHT22;9728;48.194;16.346;2024-02-23T13:04:13;22.70;64.10
19192;DHT22;9728;48.194;16.346;2024-02-23T13:09:17;22.40;63.50
19192;DHT22;9728;48.194;16.346;2024-02-23T13:14:21;22.10;63.10
19192;DHT22;9728;48.194;16.346;2024-02-23T13:19:25;21.80;62.70
19192;DHT22;9728;48.194;16.346;2024-02-23T13:24:28;21.40;62.90
19192;DHT22;9728;48.194;16.346;2024-02-23T13:29:33;21.00;63.10
19192;DHT22;9728;48.194;16.346;2024-02-23T13:34:37;20.60;63.40
19192;DHT22;9728;48.194;16.346;2024-02-23T13:39:40;20.30;63.80
19192;DHT22;9728;48.194;16.346;2024-02-23T13:44:45;19.90;64.20
19192;DHT22;9728;48.194;16.346;2024-02-23T13:49:49;19.60;64.60
19192;DHT22;9728;48.194;16.346;2024-02-23T13:54:52;19.30;65.00
19192;DHT22;9728;48.194;16.346;2024-02-23T13:59:57;19.00;65.40
19192;DHT22;9728;48.194;16.346;2024-02-23T14:05:01;18.80;66.00
19192;DHT22;9728;48.194;16.346;2024-02-23T14:10:07;18.60;66.40
19192;DHT22;9728;48.194;16.346;2024-02-23T14:15:12;18.40;66.80
19192;DHT22;9728;48.194;16.346;2024-02-23T14:20:15;18.30;67.20
19192;DHT22;9728;48.194;16.346;2024-02-23T14:25:19;18.20;67.40
19192;DHT22;9728;48.194;16.346;2024-02-23T14:30:25;18.10;67.80
19192;DHT22;9728;48.194;16.346;2024-02-23T14:35:28;17.90;68.00
19192;DHT22;9728;48.194;16.346;2024-02-23T14:40:31;17.90;69.10
19192;DHT22;9728;48.194;16.346;2024-02-23T14:45:36;17.80;68.20
19192;DHT22;9728;48.194;16.346;2024-02-23T14:50:40;17.70;68.60
19192;DHT22;9728;48.194;16.346;2024-02-23T14:55:43;17.70;68.60
19192;DHT22;9728;48.194;16.346;2024-02-23T15:00:48;17.70;68.80
19192;DHT22;9728;48.194;16.346;2024-02-23T15:05:52;17.70;69.10
19192;DHT22;9728;48.194;16.346;2024-02-23T15:10:56;17.60;69.20
19192;DHT22;9728;48.194;16.346;2024-02-23T15:16:01;17.60;69.40
19192;DHT22;9728;48.194;16.346;2024-02-23T15:21:04;17.60;69.70
19192;DHT22;9728;48.194;16.346;2024-02-23T15:26:08;17.60;70.00
19192;DHT22;9728;48.194;16.346;2024-02-23T15:31:14;17.50;69.80
19192;DHT22;9728;48.194;16.346;2024-02-23T15:36:18;17.60;70.00
19192;DHT22;9728;48.194;16.346;2024-02-23T15:41:21;17.60;69.80
19192;DHT22;9728;48.194;16.346;2024-02-23T15:46:26;17.60;69.90
19192;DHT22;9728;48.194;16.346;2024-02-23T15:51:30;17.60;70.00
19192;DHT22;9728;48.194;16.346;2024-02-23T15:56:53;17.60;69.90
19192;DHT22;9728;48.194;16.346;2024-02-23T16:01:58;17.60;70.20
19192;DHT22;9728;48.194;16.346;2024-02-23T16:07:04;17.70;70.30
19192;DHT22;9728;48.194;16.346;2024-02-23T16:12:09;17.70;70.20
19192;DHT22;9728;48.194;16.346;2024-02-23T16:17:14;17.70;70.00
19192;DHT22;9728;48.194;16.346;2024-02-23T16:22:17;17.80;70.10
19192;DHT22;9728;48.194;16.346;2024-02-23T16:27:20;17.80;70.00
19192;DHT22;9728;48.194;16.346;2024-02-23T16:32:25;17.80;70.00
19192;DHT22;9728;48.194;16.346;2024-02-23T16:37:29;17.80;70.90
19192;DHT22;9728;48.194;16.346;2024-02-23T16:42:33;17.80;70.10
19192;DHT22;9728;48.194;16.346;2024-02-23T16:47:37;17.90;70.20
19192;DHT22;9728;48.194;16.346;2024-02-23T16:52:41;17.80;70.10
19192;DHT22;9728;48.194;16.346;2024-02-23T16:57:44;17.90;70.00
19192;DHT22;9728;48.194;16.346;2024-02-23T17:02:49;17.90;70.00
19192;DHT22;9728;48.194;16.346;2024-02-23T17:07:53;17.90;70.10
19192;DHT22;9728;48.194;16.346;2024-02-23T17:12:57;17.90;70.20
19192;DHT22;9728;48.194;16.346;2024-02-23T17:18:02;18.00;70.20
19192;DHT22;9728;48.194;16.346;2024-02-23T17:23:05;18.00;70.10
19192;DHT22;9728;48.194;16.346;2024-02-23T17:28:10;18.00;70.00
19192;DHT22;9728;48.194;16.346;2024-02-23T17:33:16;18.00;70.00
19192;DHT22;9728;48.194;16.346;2024-02-23T17:38:21;18.00;70.00
19192;DHT22;9728;48.194;16.346;2024-02-23T17:43:25;18.10;70.00
19192;DHT22;9728;48.194;16.346;2024-02-23T17:48:29;18.00;70.00
19192;DHT22;9728;48.194;16.346;2024-02-23T17:53:33;18.00;70.00
19192;DHT22;9728;48.194;16.346;2024-02-23T17:58:36;18.10;70.00
19192;DHT22;9728;48.194;16.346;2024-02-23T18:03:41;18.00;69.90
19192;DHT22;9728;48.194;16.346;2024-02-23T18:08:45;18.00;70.00
19192;DHT22;9728;48.194;16.346;2024-02-23T18:13:49;18.00;69.80
19192;DHT22;9728;48.194;16.346;2024-02-23T18:18:53;18.00;69.80
19192;DHT22;9728;48.194;16.346;2024-02-23T18:23:58;18.10;70.00
19192;DHT22;9728;48.194;16.346;2024-02-23T18:29:02;18.10;70.40
19192;DHT22;9728;48.194;16.346;2024-02-23T18:34:07;18.10;70.20
19192;DHT22;9728;48.194;16.346;2024-02-23T18:39:11;18.10;70.20
19192;DHT22;9728;48.194;16.346;2024-02-23T18:44:14;18.10;70.10
19192;DHT22;9728;48.194;16.346;2024-02-23T18:49:20;18.10;70.00
19192;DHT22;9728;48.194;16.346;2024-02-23T18:54:24;18.10;70.20
19192;DHT22;9728;48.194;16.346;2024-02-23T18:59:28;18.10;70.00
19192;DHT22;9728;48.194;16.346;2024-02-23T19:04:32;18.10;69.60
19192;DHT22;9728;48.194;16.346;2024-02-23T19:09:36;18.10;69.20
19192;DHT22;9728;48.194;16.346;2024-02-23T19:14:40;18.00;68.70
19192;DHT22;9728;48.194;16.346;2024-02-23T19:19:45;17.80;68.60
19192;DHT22;9728;48.194;16.346;2024-02-23T19:24:48;17.60;68.20
19192;DHT22;9728;48.194;16.346;2024-02-23T19:29:52;17.50;68.40
19192;DHT22;9728;48.194;16.346;2024-02-23T19:34:57;17.30;68.10
19192;DHT22;9728;48.194;16.346;2024-02-23T19:40:00;17.20;68.50
19192;DHT22;9728;48.194;16.346;2024-02-23T19:45:05;17.00;68.10
19192;DHT22;9728;48.194;16.346;2024-02-23T19:50:11;16.90;69.60
19192;DHT22;9728;48.194;16.346;2024-02-23T19:55:15;16.90;69.00
19192;DHT22;9728;48.194;16.346;2024-02-23T20:00:19;16.80;68.60
19192;DHT22;9728;48.194;16.346;2024-02-23T20:05:24;16.70;68.20
19192;DHT22;9728;48.194;16.346;2024-02-23T20:10:28;16.60;68.00
19192;DHT22;9728;48.194;16.346;2024-02-23T20:15:32;16.50;67.90
19192;DHT22;9728;48.194;16.346;2024-02-23T20:20:37;16.40;67.80
19192;DHT22;9728;48.194;16.346;2024-02-23T20:25:41;16.30;67.80
19192;DHT22;9728;48.194;16.346;2024-02-23T20:30:44;16.10;67.80
19192;DHT22;9728;48.194;16.346;2024-02-23T20:35:49;16.00;67.70
19192;DHT22;9728;48.194;16.346;2024-02-23T20:40:53;15.90;67.70
19192;DHT22;9728;48.194;16.346;2024-02-23T20:45:56;15.70;67.80
19192;DHT22;9728;48.194;16.346;2024-02-23T20:51:02;15.60;67.80
19192;DHT22;9728;48.194;16.346;2024-02-23T20:56:07;15.50;67.90
19192;DHT22;9728;48.194;16.346;2024-02-23T21:01:11;15.30;67.90
19192;DHT22;9728;48.194;16.346;2024-02-23T21:06:16;15.20;68.10
19192;DHT22;9728;48.194;16.346;2024-02-23T21:11:20;15.10;68.20
19192;DHT22;9728;48.194;16.346;2024-02-23T21:16:24;15.00;68.10
19192;DHT22;9728;48.194;16.346;2024-02-23T21:21:29;14.90;68.30
19192;DHT22;9728;48.194;16.346;2024-02-23T21:26:32;14.80;68.40
19192;DHT22;9728;48.194;16.346;2024-02-23T21:31:36;14.80;68.60
19192;DHT22;9728;48.194;16.346;2024-02-23T21:36:41;14.70;68.60
19192;DHT22;9728;48.194;16.346;2024-02-23T21:41:44;14.60;68.90
19192;DHT22;9728;48.194;16.346;2024-02-23T21:46:48;14.50;68.80
19192;DHT22;9728;48.194;16.346;2024-02-23T21:51:53;14.40;69.00
19192;DHT22;9728;48.194;16.346;2024-02-23T21:56:56;14.30;69.10
19192;DHT22;9728;48.194;16.346;2024-02-23T22:02:02;14.20;69.10
19192;DHT22;9728;48.194;16.346;2024-02-23T22:07:09;14.20;69.30
19192;DHT22;9728;48.194;16.346;2024-02-23T22:12:15;14.10;69.40
19192;DHT22;9728;48.194;16.346;2024-02-23T22:17:18;14.10;69.30
19192;DHT22;9728;48.194;16.346;2024-02-23T22:22:24;14.00;69.30
19192;DHT22;9728;48.194;16.346;2024-02-23T22:27:28;14.00;69.60
19192;DHT22;9728;48.194;16.346;2024-02-23T22:32:31;13.90;69.60
19192;DHT22;9728;48.194;16.346;2024-02-23T22:37:36;13.80;69.70
19192;DHT22;9728;48.194;16.346;2024-02-23T22:42:39;13.80;70.00
19192;DHT22;9728;48.194;16.346;2024-02-23T22:47:43;13.80;69.90
19192;DHT22;9728;48.194;16.346;2024-02-23T22:52:48;13.70;70.00
19192;DHT22;9728;48.194;16.346;2024-02-23T22:57:51;13.70;70.40
19192;DHT22;9728;48.194;16.346;2024-02-23T23:02:54;13.70;70.30
19192;DHT22;9728;48.194;16.346;2024-02-23T23:08:00;13.60;70.30
19192;DHT22;9728;48.194;16.346;2024-02-23T23:13:04;13.60;70.90
19192;DHT22;9728;48.194;16.346;2024-02-23T23:18:07;13.60;70.50
19192;DHT22;9728;48.194;16.346;2024-02-23T23:23:12;13.50;70.50
19192;DHT22;9728;48.194;16.346;2024-02-23T23:28:15;13.50;70.70
19192;DHT22;9728;48.194;16.346;2024-02-23T23:33:19;13.40;70.70
19192;DHT22;9728;48.194;16.346;2024-02-23T23:38:24;13.40;70.80
19192;DHT22;9728;48.194;16.346;2024-02-23T23:43:27;13.30;71.00
19192;DHT22;9728;48.194;16.346;2024-02-23T23:48:31;13.30;71.10
19192;DHT22;9728;48.194;16.346;2024-02-23T23:53:35;13.30;71.10
19192;DHT22;9728;48.194;16.346;2024-02-23T23:58:39;13.30;71.30
